createdAt,value
2018-06-16T00:00:10.838Z,1016.9
2018-06-16T00:05:10.593Z,1016.9
2018-06-16T00:10:10.609Z,1016.9
2018-06-16T00:15:14.612Z,1016.7
2018-06-16T00:20:14.425Z,1016.8
2018-06-16T00:25:26.621Z,1016.8
2018-06-16T00:30:26.521Z,1016.7
2018-06-16T00:35:26.524Z,1016.8
2018-06-16T00:40:26.552Z,1016.9
2018-06-16T00:45:26.492Z,1016.8
2018-06-16T00:50:26.355Z,1016.7
2018-06-16T00:55:26.363Z,1016.7
2018-06-16T01:00:26.346Z,1016.7
2018-06-16T01:05:26.520Z,1016.7
2018-06-16T01:10:38.401Z,1016.7
2018-06-16T01:15:37.909Z,1016.6
2018-06-16T01:20:38.107Z,1016.7
2018-06-16T01:25:38.172Z,1016.6
2018-06-16T01:30:38.119Z,1016.5
2018-06-16T01:35:38.169Z,1016.6
2018-06-16T01:40:38.073Z,1016.4
2018-06-16T01:45:38.064Z,1016.3
2018-06-16T01:50:38.249Z,1016.4
2018-06-16T01:55:50.369Z,1016.3
2018-06-16T02:00:50.305Z,1016.4
2018-06-16T02:05:50.217Z,1016.3
2018-06-16T02:10:50.241Z,1016.4
2018-06-16T02:15:50.113Z,1016.3
2018-06-16T02:20:50.330Z,1016.3
2018-06-16T02:25:50.269Z,1016.3
2018-06-16T02:30:50.644Z,1016.2
2018-06-16T02:35:50.395Z,1016.2
2018-06-16T02:41:02.453Z,1016.4
2018-06-16T02:46:02.200Z,1016.3
2018-06-16T02:51:02.419Z,1016.3
2018-06-16T02:56:02.343Z,1016.3
2018-06-16T03:01:02.398Z,1016.3
2018-06-16T03:06:02.220Z,1016.3
2018-06-16T03:11:02.372Z,1016.3
2018-06-16T03:16:02.488Z,1016.4
2018-06-16T03:21:02.502Z,1016.5
2018-06-16T03:26:14.691Z,1016.6
2018-06-16T03:31:14.456Z,1016.7
2018-06-16T03:36:14.761Z,1016.7
2018-06-16T03:41:14.407Z,1016.6
2018-06-16T03:46:14.555Z,1016.6
2018-06-16T03:51:14.565Z,1016.7
2018-06-16T03:56:14.432Z,1016.7
2018-06-16T04:01:17.352Z,1016.7
2018-06-16T04:06:17.249Z,1016.8
2018-06-16T04:11:27.078Z,1016.7
2018-06-16T04:16:26.798Z,1016.8
2018-06-16T04:21:26.810Z,1016.8
2018-06-16T04:26:27.025Z,1016.8
2018-06-16T04:31:27.262Z,1016.8
2018-06-16T04:36:27.061Z,1016.8
2018-06-16T04:41:27.216Z,1016.8
2018-06-16T04:46:28.012Z,1016.7
2018-06-16T04:51:27.905Z,1016.7
2018-06-16T04:56:40.236Z,1016.8
2018-06-16T05:01:39.958Z,1016.8
2018-06-16T05:06:40.213Z,1016.7
2018-06-16T05:11:40.109Z,1016.7
2018-06-16T05:16:40.265Z,1016.7
2018-06-16T05:21:40.108Z,1016.6
2018-06-16T05:26:40.230Z,1016.6
2018-06-16T05:31:43.044Z,1016.6
2018-06-16T05:36:42.759Z,1016.4
2018-06-16T05:41:55.347Z,1016.4
2018-06-16T05:46:55.207Z,1016.3
2018-06-16T05:51:55.084Z,1016.3
2018-06-16T05:56:55.277Z,1016.2
2018-06-16T06:01:55.076Z,1016.3
2018-06-16T06:06:55.104Z,1016.1
2018-06-16T06:11:55.081Z,1016.1
2018-06-16T06:16:55.314Z,1016.1
2018-06-16T06:21:55.374Z,1016.1
2018-06-16T06:27:07.276Z,1016
2018-06-16T06:32:07.284Z,1015.9
2018-06-16T06:37:07.193Z,1015.8
2018-06-16T06:42:07.147Z,1015.7
2018-06-16T06:47:07.001Z,1015.7
2018-06-16T06:52:07.031Z,1015.6
2018-06-16T06:57:07.016Z,1015.6
2018-06-16T07:02:12.424Z,1015.7
2018-06-16T07:07:12.181Z,1015.6
2018-06-16T07:12:24.952Z,1015.6
2018-06-16T07:17:24.353Z,1015.5
2018-06-16T07:22:24.380Z,1015.4
2018-06-16T07:27:24.408Z,1015.3
2018-06-16T07:32:24.378Z,1015.3
2018-06-16T07:37:24.339Z,1015.3
2018-06-16T07:42:24.348Z,1015.2
2018-06-16T07:47:24.356Z,1015.2
2018-06-16T07:52:24.327Z,1015.1
2018-06-16T07:57:35.557Z,1015.1
2018-06-16T08:02:35.292Z,1015
2018-06-16T08:07:35.302Z,1015.2
2018-06-16T08:12:35.312Z,1015.2
2018-06-16T08:17:35.339Z,1015
2018-06-16T08:22:35.355Z,1014.9
2018-06-16T08:27:35.285Z,1014.8
2018-06-16T08:32:37.746Z,1014.9
2018-06-16T08:37:37.668Z,1014.8
2018-06-16T08:42:49.968Z,1014.7
2018-06-16T08:47:49.801Z,1014.8
2018-06-16T08:52:49.690Z,1014.7
2018-06-16T08:57:49.877Z,1014.6
2018-06-16T09:02:49.694Z,1014.6
2018-06-16T09:07:49.695Z,1014.5
2018-06-16T09:12:49.687Z,1014.5
2018-06-16T09:17:52.181Z,1014.5
2018-06-16T09:22:52.070Z,1014.6
2018-06-16T09:28:05.020Z,1014.6
2018-06-16T09:33:03.821Z,1014.6
2018-06-16T09:38:03.853Z,1014.7
2018-06-16T09:43:03.805Z,1014.7
2018-06-16T09:48:03.813Z,1014.5
2018-06-16T09:53:03.961Z,1014.5
2018-06-16T09:58:03.995Z,1014.6
2018-06-16T10:03:03.835Z,1014.5
2018-06-16T10:08:03.821Z,1014.4
2018-06-16T10:13:15.433Z,1014.4
2018-06-16T10:18:15.137Z,1014.4
2018-06-16T10:23:15.211Z,1014.4
2018-06-16T10:28:15.117Z,1014.3
2018-06-16T10:33:15.115Z,1014.4
2018-06-16T10:38:15.160Z,1014.3
2018-06-16T10:43:15.154Z,1014.3
2018-06-16T10:48:15.147Z,1014.4
2018-06-16T10:53:15.327Z,1014.2
2018-06-16T10:58:27.528Z,1014.3
2018-06-16T11:03:27.370Z,1014.3
2018-06-16T11:08:27.432Z,1014.2
2018-06-16T11:13:27.457Z,1014
2018-06-16T11:18:27.481Z,1014
2018-06-16T11:23:27.296Z,1014
2018-06-16T11:28:27.379Z,1013.9
2018-06-16T11:33:27.414Z,1014
2018-06-16T11:38:27.411Z,1013.8
2018-06-16T11:43:39.295Z,1013.9
2018-06-16T11:48:39.040Z,1014
2018-06-16T11:53:39.029Z,1013.8
2018-06-16T11:58:39.199Z,1013.8
2018-06-16T12:03:39.039Z,1013.8
2018-06-16T12:08:39.057Z,1013.7
2018-06-16T12:13:39.222Z,1013.6
2018-06-16T12:18:39.044Z,1013.6
2018-06-16T12:23:39.044Z,1013.6
2018-06-16T12:28:39.164Z,1013.6
2018-06-16T12:33:39.287Z,1013.6
2018-06-16T12:38:39.186Z,1013.6
2018-06-16T12:43:39.754Z,1013.6
2018-06-16T12:48:39.455Z,1013.6
2018-06-16T12:53:51.753Z,1013.6
2018-06-16T12:58:51.458Z,1013.6
2018-06-16T13:03:51.653Z,1013.6
2018-06-16T13:08:51.685Z,1013.6
2018-06-16T13:13:51.495Z,1013.5
2018-06-16T13:18:51.496Z,1013.4
2018-06-16T13:23:51.477Z,1013.4
2018-06-16T13:28:53.472Z,1013.5
2018-06-16T13:33:53.293Z,1013.5
2018-06-16T13:39:06.205Z,1013.4
2018-06-16T13:44:05.956Z,1013.4
2018-06-16T13:49:06.091Z,1013.4
2018-06-16T13:54:06.138Z,1013.3
2018-06-16T13:59:06.153Z,1013.3
2018-06-16T14:04:05.953Z,1013.3
2018-06-16T14:09:06.145Z,1013.3
2018-06-16T14:14:06.160Z,1013.3
2018-06-16T14:19:06.102Z,1013.3
2018-06-16T14:24:06.137Z,1013.3
2018-06-16T14:29:06.140Z,1013.2
2018-06-16T14:34:06.204Z,1013.2
2018-06-16T14:39:06.977Z,1013.3
2018-06-16T14:44:06.869Z,1013.3
2018-06-16T14:49:19.824Z,1013.2
2018-06-16T14:54:19.522Z,1013.3
2018-06-16T14:59:19.655Z,1013.5
2018-06-16T15:04:20.050Z,1013.4
2018-06-16T15:09:19.775Z,1013.4
2018-06-16T15:14:19.792Z,1013.4
2018-06-16T15:19:19.539Z,1013.4
2018-06-16T15:24:20.081Z,1013.5
2018-06-16T15:29:20.145Z,1013.4
2018-06-16T15:34:34.667Z,1013.4
2018-06-16T15:39:34.399Z,1013.4
2018-06-16T15:44:34.519Z,1013.4
2018-06-16T15:49:34.368Z,1013.4
2018-06-16T15:54:34.506Z,1013.4
2018-06-16T15:59:34.530Z,1013.3
2018-06-16T16:04:34.577Z,1013.2
2018-06-16T16:09:35.832Z,1013.2
2018-06-16T16:14:35.767Z,1013.2
2018-06-16T16:19:48.482Z,1013.2
2018-06-16T16:24:48.215Z,1013.2
2018-06-16T16:29:48.187Z,1013.1
2018-06-16T16:34:48.346Z,1013.1
2018-06-16T16:39:48.300Z,1013.2
2018-06-16T16:44:48.435Z,1013.2
2018-06-16T16:49:48.203Z,1013.1
2018-06-16T16:54:48.454Z,1013.2
2018-06-16T16:59:48.544Z,1013.1
2018-06-16T17:05:01.364Z,1013.1
2018-06-16T17:10:01.220Z,1013.1
2018-06-16T17:15:01.078Z,1013.1
2018-06-16T17:20:01.028Z,1013.1
2018-06-16T17:25:01.251Z,1013.2
2018-06-16T17:30:01.152Z,1013.3
2018-06-16T17:35:01.284Z,1013.1
2018-06-16T17:40:04.047Z,1013.3
2018-06-16T17:45:03.896Z,1013.3
2018-06-16T17:50:16.315Z,1013.3
2018-06-16T17:55:16.142Z,1013.3
2018-06-16T18:00:16.221Z,1013.3
2018-06-16T18:05:16.268Z,1013.3
2018-06-16T18:10:16.198Z,1013.4
2018-06-16T18:15:17.440Z,1013.4
2018-06-16T18:20:18.696Z,1013.4
2018-06-16T18:25:17.695Z,1013.4
2018-06-16T18:30:17.699Z,1013.4
2018-06-16T18:35:29.893Z,1013.5
2018-06-16T18:40:29.788Z,1013.5
2018-06-16T18:45:29.815Z,1013.5
2018-06-16T18:50:29.746Z,1013.6
2018-06-16T18:55:29.769Z,1013.6
2018-06-16T19:00:29.612Z,1013.6
2018-06-16T19:05:29.854Z,1013.7
2018-06-16T19:10:31.057Z,1013.8
2018-06-16T19:15:30.610Z,1013.8
2018-06-16T19:20:43.303Z,1013.9
2018-06-16T19:25:42.713Z,1013.9
2018-06-16T19:30:42.952Z,1014.1
2018-06-16T19:35:42.870Z,1014.1
2018-06-16T19:40:42.673Z,1014.2
2018-06-16T19:45:42.954Z,1014.2
2018-06-16T19:50:42.853Z,1014.3
2018-06-16T19:55:43.348Z,1014.3
2018-06-16T20:00:43.247Z,1014.3
2018-06-16T20:05:55.710Z,1014.5
2018-06-16T20:10:55.428Z,1014.6
2018-06-16T20:15:55.413Z,1014.5
2018-06-16T20:20:55.667Z,1014.5
2018-06-16T20:25:55.573Z,1014.5
2018-06-16T20:30:55.541Z,1014.6
2018-06-16T20:35:55.552Z,1014.6
2018-06-16T20:40:57.897Z,1014.8
2018-06-16T20:45:57.757Z,1014.8
2018-06-16T20:51:10.889Z,1014.8
2018-06-16T20:56:09.624Z,1014.8
2018-06-16T21:01:09.443Z,1014.8
2018-06-16T21:06:09.590Z,1014.8
2018-06-16T21:11:09.443Z,1014.9
2018-06-16T21:16:09.455Z,1014.9
2018-06-16T21:21:09.464Z,1015
2018-06-16T21:26:10.757Z,1015.1
2018-06-16T21:31:10.487Z,1015
2018-06-16T21:36:22.816Z,1015.1
2018-06-16T21:41:22.624Z,1015.1
2018-06-16T21:46:23.370Z,1015.1
2018-06-16T21:51:22.490Z,1015.1
2018-06-16T21:56:22.545Z,1015.1
2018-06-16T22:01:22.554Z,1015
2018-06-16T22:06:23.023Z,1015.1
2018-06-16T22:11:25.341Z,1015.2
2018-06-16T22:16:25.340Z,1015.2
2018-06-16T22:21:37.678Z,1015.1
2018-06-16T22:26:37.432Z,1015.2
2018-06-16T22:31:37.436Z,1015.2
2018-06-16T22:36:37.411Z,1015.2
2018-06-16T22:41:37.412Z,1015.2
2018-06-16T22:46:37.621Z,1015.3
2018-06-16T22:51:37.669Z,1015.2
2018-06-16T22:56:39.856Z,1015.1
2018-06-16T23:01:39.689Z,1015.3
2018-06-16T23:06:50.155Z,1015.2
2018-06-16T23:11:49.887Z,1015.2
2018-06-16T23:16:50.116Z,1015.3
2018-06-16T23:21:50.133Z,1015.2
2018-06-16T23:26:50.054Z,1015.2
2018-06-16T23:31:49.899Z,1015.2
2018-06-16T23:36:50.131Z,1015.2
2018-06-16T23:41:50.892Z,1015.2
2018-06-16T23:46:50.812Z,1015.2
2018-06-16T23:52:02.916Z,1015.2
2018-06-16T23:57:02.656Z,1015.3
